createdAt,value
2018-08-08T00:00:19.515Z,52.98
2018-08-08T00:02:48.737Z,54.35
2018-08-08T00:05:18.113Z,55.02
2018-08-08T00:07:47.209Z,54.31
2018-08-08T00:10:16.169Z,54.19
2018-08-08T00:12:45.120Z,54.35
2018-08-08T00:15:14.284Z,54.41
2018-08-08T00:17:45.141Z,53.90
2018-08-08T00:20:14.443Z,53.76
2018-08-08T00:22:43.424Z,53.88
2018-08-08T00:25:14.964Z,54.56
2018-08-08T00:27:45.824Z,54.27
2018-08-08T00:30:16.456Z,53.47
2018-08-08T00:32:46.068Z,53.39
2018-08-08T00:35:15.108Z,53.05
2018-08-08T00:37:44.014Z,52.95
2018-08-08T00:40:14.264Z,53.06
2018-08-08T00:42:44.265Z,53.15
2018-08-08T00:45:14.611Z,55.06
2018-08-08T00:47:44.419Z,54.30
2018-08-08T00:50:14.637Z,55.58
2018-08-08T00:52:44.044Z,55.50
2018-08-08T00:55:13.052Z,54.68
2018-08-08T00:57:42.276Z,55.12
2018-08-08T01:00:16.139Z,55.72
2018-08-08T01:02:45.875Z,55.74
2018-08-08T01:05:16.099Z,55.63
2018-08-08T01:07:45.889Z,56.22
2018-08-08T01:10:14.828Z,57.05
2018-08-08T01:12:43.746Z,55.73
2018-08-08T01:15:13.664Z,54.84
2018-08-08T01:17:42.797Z,55.04
2018-08-08T01:20:13.100Z,56.74
2018-08-08T01:22:42.116Z,56.09
2018-08-08T01:25:13.049Z,57.00
2018-08-08T01:27:41.961Z,58.57
2018-08-08T01:30:17.337Z,57.10
2018-08-08T01:32:46.775Z,56.59
2018-08-08T01:35:16.807Z,57.51
2018-08-08T01:37:45.750Z,57.80
2018-08-08T01:40:17.783Z,57.55
2018-08-08T01:42:46.921Z,57.34
2018-08-08T01:45:16.938Z,58.02
2018-08-08T01:47:46.021Z,58.26
2018-08-08T01:50:15.511Z,58.09
2018-08-08T01:52:44.460Z,58.67
2018-08-08T01:55:14.292Z,58.96
2018-08-08T01:57:43.204Z,59.80
2018-08-08T02:00:14.212Z,59.42
2018-08-08T02:02:43.220Z,59.78
2018-08-08T02:05:12.327Z,59.91
2018-08-08T02:07:41.662Z,60.98
2018-08-08T02:10:15.175Z,59.61
2018-08-08T02:12:44.120Z,61.75
2018-08-08T02:15:14.155Z,60.28
2018-08-08T02:17:43.098Z,60.74
2018-08-08T02:20:12.663Z,61.84
2018-08-08T02:22:42.243Z,62.15
2018-08-08T02:25:12.643Z,62.49
2018-08-08T02:27:41.543Z,61.80
2018-08-08T02:30:15.076Z,61.75
2018-08-08T02:32:44.622Z,62.46
2018-08-08T02:35:13.564Z,62.40
2018-08-08T02:37:42.561Z,62.77
2018-08-08T02:40:12.081Z,62.88
2018-08-08T02:42:43.548Z,63.39
2018-08-08T02:45:14.857Z,64.06
2018-08-08T02:47:43.965Z,63.70
2018-08-08T02:50:14.511Z,63.54
2018-08-08T02:52:43.473Z,65.19
2018-08-08T02:55:13.404Z,64.15
2018-08-08T02:57:42.610Z,64.83
2018-08-08T03:00:16.107Z,65.08
2018-08-08T03:02:45.191Z,64.55
2018-08-08T03:05:14.149Z,64.89
2018-08-08T03:07:44.009Z,64.96
2018-08-08T03:10:14.528Z,64.86
2018-08-08T03:12:43.607Z,65.24
2018-08-08T03:15:14.473Z,66.05
2018-08-08T03:17:43.532Z,65.01
2018-08-08T03:20:13.997Z,64.97
2018-08-08T03:22:43.704Z,65.80
2018-08-08T03:25:14.350Z,65.75
2018-08-08T03:27:44.055Z,66.95
2018-08-08T03:30:16.186Z,66.54
2018-08-08T03:32:45.123Z,67.88
2018-08-08T03:35:14.328Z,66.32
2018-08-08T03:37:43.240Z,66.42
2018-08-08T03:40:13.314Z,67.04
2018-08-08T03:42:42.669Z,67.15
2018-08-08T03:45:12.913Z,67.93
2018-08-08T03:47:41.815Z,66.89
2018-08-08T03:50:11.775Z,67.65
2018-08-08T03:52:41.617Z,67.79
2018-08-08T03:55:11.356Z,68.00
2018-08-08T03:57:40.581Z,68.45
2018-08-08T04:00:18.803Z,68.12
2018-08-08T04:02:48.024Z,68.23
2018-08-08T04:05:16.937Z,68.58
2018-08-08T04:07:46.354Z,68.70
2018-08-08T04:10:15.904Z,69.37
2018-08-08T04:12:44.928Z,69.29
2018-08-08T04:15:16.136Z,70.00
2018-08-08T04:17:45.102Z,68.84
2018-08-08T04:20:14.064Z,69.84
2018-08-08T04:22:43.115Z,69.72
2018-08-08T04:25:13.343Z,69.19
2018-08-08T04:27:42.463Z,69.43
2018-08-08T04:30:14.026Z,69.27
2018-08-08T04:32:43.403Z,68.44
2018-08-08T04:35:13.044Z,68.53
2018-08-08T04:37:42.928Z,69.25
2018-08-08T04:40:15.095Z,69.67
2018-08-08T04:42:45.767Z,69.01
2018-08-08T04:45:15.375Z,69.65
2018-08-08T04:47:44.735Z,68.95
2018-08-08T04:50:13.806Z,69.22
2018-08-08T04:52:44.226Z,69.15
2018-08-08T04:57:56.351Z,67.64
2018-08-08T05:00:25.296Z,68.30
2018-08-08T05:02:54.245Z,67.69
2018-08-08T05:05:23.176Z,67.27
2018-08-08T05:07:52.163Z,68.36
2018-08-08T05:10:21.077Z,67.08
2018-08-08T05:12:50.758Z,67.49
2018-08-08T05:15:20.399Z,67.29
2018-08-08T05:17:49.904Z,66.64
2018-08-08T05:20:18.866Z,66.46
2018-08-08T05:22:48.588Z,66.44
2018-08-08T05:25:17.876Z,65.49
2018-08-08T05:27:47.104Z,65.31
2018-08-08T05:30:18.206Z,65.13
2018-08-08T05:32:47.196Z,64.55
2018-08-08T05:35:17.329Z,63.81
2018-08-08T05:37:46.360Z,64.48
2018-08-08T05:40:17.723Z,63.51
2018-08-08T05:42:47.703Z,64.01
2018-08-08T05:45:16.674Z,63.74
2018-08-08T05:47:48.151Z,62.93
2018-08-08T05:50:17.550Z,63.09
2018-08-08T05:52:46.552Z,62.56
2018-08-08T05:55:16.535Z,62.25
2018-08-08T05:57:45.800Z,60.14
2018-08-08T06:00:21.380Z,57.82
2018-08-08T06:02:50.655Z,54.67
2018-08-08T06:05:19.564Z,51.97
2018-08-08T06:07:48.552Z,49.75
2018-08-08T06:10:17.653Z,50.89
2018-08-08T06:12:46.695Z,54.67
2018-08-08T06:15:16.819Z,56.05
2018-08-08T06:17:45.802Z,58.08
2018-08-08T06:20:16.659Z,57.72
2018-08-08T06:22:49.230Z,56.57
2018-08-08T06:25:20.597Z,54.89
2018-08-08T06:27:50.060Z,56.32
2018-08-08T06:30:24.965Z,53.48
2018-08-08T06:32:54.789Z,51.47
2018-08-08T06:35:25.654Z,51.33
2018-08-08T06:37:55.482Z,51.35
2018-08-08T06:40:24.439Z,48.05
2018-08-08T06:42:53.521Z,47.07
2018-08-08T06:45:24.812Z,46.21
2018-08-08T06:48:02.366Z,45.63
2018-08-08T06:50:33.120Z,45.21
2018-08-08T06:53:02.200Z,43.55
2018-08-08T06:55:31.097Z,42.96
2018-08-08T06:58:00.740Z,45.64
2018-08-08T07:00:31.165Z,43.52
2018-08-08T07:03:00.154Z,44.38
2018-08-08T07:05:29.160Z,44.04
2018-08-08T07:07:58.480Z,43.57
2018-08-08T07:10:27.444Z,44.61
2018-08-08T07:12:56.389Z,43.42
2018-08-08T07:15:25.632Z,43.61
2018-08-08T07:17:54.550Z,44.71
2018-08-08T07:20:23.451Z,44.25
2018-08-08T07:22:52.352Z,44.24
2018-08-08T07:25:21.342Z,44.00
2018-08-08T07:27:50.294Z,43.44
2018-08-08T07:30:19.940Z,43.34
2018-08-08T07:32:49.421Z,43.90
2018-08-08T07:35:19.237Z,44.23
2018-08-08T07:37:48.537Z,43.25
2018-08-08T07:40:18.270Z,43.43
2018-08-08T07:42:47.427Z,44.91
2018-08-08T07:45:24.425Z,43.51
2018-08-08T07:47:53.623Z,42.56
2018-08-08T07:50:22.647Z,44.22
2018-08-08T07:52:51.589Z,43.35
2018-08-08T07:55:21.592Z,41.10
2018-08-08T07:57:50.695Z,42.15
2018-08-08T08:00:24.055Z,44.52
2018-08-08T08:03:04.505Z,42.28
2018-08-08T08:05:42.737Z,41.57
2018-08-08T08:08:37.415Z,42.16
2018-08-08T08:11:07.308Z,41.26
2018-08-08T08:13:36.271Z,41.29
2018-08-08T08:16:05.532Z,40.48
2018-08-08T08:18:34.504Z,41.14
2018-08-08T08:21:03.497Z,41.01
2018-08-08T08:23:33.008Z,39.95
2018-08-08T08:26:01.936Z,40.87
2018-08-08T08:28:30.875Z,41.40
2018-08-08T08:30:59.917Z,40.00
2018-08-08T08:33:28.879Z,38.18
2018-08-08T08:35:57.863Z,39.22
2018-08-08T08:38:26.790Z,37.74
2018-08-08T08:40:55.784Z,38.37
2018-08-08T08:43:25.359Z,36.02
2018-08-08T08:45:54.971Z,34.80
2018-08-08T08:48:23.995Z,35.30
2018-08-08T08:50:52.975Z,37.48
2018-08-08T08:53:21.955Z,36.86
2018-08-08T08:55:51.255Z,38.15
2018-08-08T08:58:20.148Z,37.71
2018-08-08T09:00:49.126Z,39.36
2018-08-08T09:03:18.079Z,37.46
2018-08-08T09:05:47.017Z,36.28
2018-08-08T09:08:15.954Z,38.05
2018-08-08T09:10:44.890Z,38.26
2018-08-08T09:13:13.897Z,37.69
2018-08-08T09:15:42.872Z,36.67
2018-08-08T09:18:12.506Z,35.63
2018-08-08T09:20:41.806Z,35.51
2018-08-08T09:23:10.738Z,35.34
2018-08-08T09:25:39.799Z,34.99
2018-08-08T09:28:08.782Z,34.19
2018-08-08T09:30:38.646Z,34.10
2018-08-08T09:33:13.529Z,33.75
2018-08-08T09:35:42.429Z,32.88
2018-08-08T09:38:11.386Z,32.73
2018-08-08T09:40:40.324Z,31.73
2018-08-08T09:43:09.297Z,31.68
2018-08-08T09:45:38.295Z,31.57
2018-08-08T09:48:07.231Z,32.01
2018-08-08T09:50:36.177Z,31.17
2018-08-08T09:53:05.903Z,29.52
2018-08-08T09:55:35.618Z,29.61
2018-08-08T09:58:04.536Z,28.78
2018-08-08T10:00:38.888Z,27.23
2018-08-08T10:03:10.397Z,27.46
2018-08-08T10:05:40.216Z,27.80
2018-08-08T10:08:09.179Z,29.05
2018-08-08T10:10:38.096Z,29.42
2018-08-08T10:13:07.865Z,29.66
2018-08-08T10:15:36.776Z,30.01
2018-08-08T10:18:05.742Z,30.63
2018-08-08T10:20:34.663Z,29.61
2018-08-08T10:23:03.661Z,29.70
2018-08-08T10:25:32.584Z,28.28
2018-08-08T10:28:02.052Z,27.67
2018-08-08T10:30:31.566Z,27.36
2018-08-08T10:33:00.553Z,28.17
2018-08-08T10:35:29.528Z,28.20
2018-08-08T10:37:58.418Z,28.99
2018-08-08T10:40:30.289Z,29.27
2018-08-08T10:43:02.590Z,29.89
2018-08-08T10:45:34.307Z,30.06
2018-08-08T10:48:12.591Z,32.46
2018-08-08T10:50:41.893Z,33.70
2018-08-08T10:53:15.697Z,34.55
2018-08-08T10:55:49.312Z,34.04
2018-08-08T10:58:21.927Z,34.13
2018-08-08T11:00:53.755Z,34.47
2018-08-08T11:03:32.423Z,35.14
2018-08-08T11:06:05.613Z,34.25
2018-08-08T11:08:53.869Z,34.78
2018-08-08T11:11:25.525Z,34.28
2018-08-08T11:14:03.111Z,33.39
2018-08-08T11:16:38.966Z,32.37
2018-08-08T11:19:10.834Z,30.39
2018-08-08T11:21:47.511Z,29.18
2018-08-08T11:24:20.718Z,28.36
2018-08-08T11:26:55.014Z,26.18
2018-08-08T11:29:43.771Z,25.65
2018-08-08T11:32:19.115Z,24.91
2018-08-08T11:34:54.995Z,24.71
2018-08-08T11:37:27.819Z,24.11
2018-08-08T11:40:03.937Z,26.95
2018-08-08T11:42:45.740Z,24.65
2018-08-08T11:45:20.129Z,24.27
2018-08-08T11:47:58.037Z,26.78
2018-08-08T11:50:41.906Z,27.93
2018-08-08T11:53:14.771Z,29.01
2018-08-08T11:55:50.419Z,30.52
2018-08-08T11:58:33.263Z,31.09
2018-08-08T12:01:08.990Z,31.29
2018-08-08T12:03:42.700Z,30.28
2018-08-08T12:06:16.179Z,30.87
2018-08-08T12:08:49.433Z,29.94
2018-08-08T12:11:19.339Z,31.20
2018-08-08T12:13:57.270Z,29.93
2018-08-08T12:16:28.977Z,31.37
2018-08-08T12:19:01.899Z,30.01
2018-08-08T12:21:34.953Z,31.07
2018-08-08T12:24:09.334Z,31.23
2018-08-08T12:26:40.303Z,32.95
2018-08-08T12:29:14.470Z,33.16
2018-08-08T12:31:46.788Z,32.82
2018-08-08T12:34:22.370Z,30.00
2018-08-08T12:37:08.219Z,29.36
2018-08-08T12:39:42.720Z,28.55
2018-08-08T12:42:15.836Z,29.39
2018-08-08T12:44:54.176Z,30.72
2018-08-08T12:47:24.257Z,30.20
2018-08-08T12:52:44.293Z,29.41
2018-08-08T12:55:16.325Z,29.58
2018-08-08T12:57:47.009Z,30.15
2018-08-08T13:00:19.622Z,29.29
2018-08-08T13:02:49.855Z,29.77
2018-08-08T13:05:22.901Z,30.71
2018-08-08T13:07:57.505Z,31.22
2018-08-08T13:10:32.542Z,28.99
2018-08-08T13:13:01.890Z,29.15
2018-08-08T13:18:18.078Z,25.77
2018-08-08T13:20:56.015Z,25.57
2018-08-08T13:23:32.731Z,24.92
2018-08-08T13:26:07.763Z,23.45
2018-08-08T13:28:45.184Z,23.15
2018-08-08T13:31:16.012Z,24.88
2018-08-08T13:33:53.229Z,24.45
2018-08-08T13:36:29.101Z,24.84
2018-08-08T13:39:12.537Z,25.46
2018-08-08T13:41:51.028Z,26.53
2018-08-08T13:44:27.276Z,26.77
2018-08-08T13:47:03.524Z,26.51
2018-08-08T13:49:37.935Z,27.54
2018-08-08T13:52:08.812Z,27.85
2018-08-08T13:54:40.680Z,28.65
2018-08-08T13:57:16.404Z,30.31
2018-08-08T13:59:53.699Z,30.80
2018-08-08T14:02:28.163Z,31.63
2018-08-08T14:05:06.199Z,31.40
2018-08-08T14:07:39.894Z,31.86
2018-08-08T14:10:11.639Z,32.71
2018-08-08T14:12:51.076Z,32.17
2018-08-08T14:15:23.393Z,33.76
2018-08-08T14:18:06.085Z,35.46
2018-08-08T14:20:41.819Z,34.27
2018-08-08T14:23:14.438Z,34.85
2018-08-08T14:25:46.622Z,33.97
2018-08-08T14:28:16.640Z,35.85
2018-08-08T14:30:50.282Z,35.24
2018-08-08T14:33:24.034Z,36.80
2018-08-08T14:35:54.962Z,37.36
2018-08-08T14:38:29.154Z,38.39
2018-08-08T14:41:05.686Z,37.37
2018-08-08T14:43:40.615Z,39.66
2018-08-08T14:46:14.580Z,38.76
2018-08-08T14:48:51.172Z,39.74
2018-08-08T14:51:23.568Z,41.17
2018-08-08T14:53:57.852Z,40.87
2018-08-08T14:56:28.480Z,39.54
2018-08-08T14:58:58.232Z,38.83
2018-08-08T15:01:27.275Z,39.47
2018-08-08T15:03:56.566Z,39.19
2018-08-08T15:06:25.640Z,38.87
2018-08-08T15:08:54.858Z,42.07
2018-08-08T15:11:25.181Z,47.17
2018-08-08T15:13:54.725Z,54.56
2018-08-08T15:16:24.042Z,59.46
2018-08-08T15:18:53.203Z,63.13
2018-08-08T15:21:22.420Z,69.28
2018-08-08T15:23:51.481Z,75.64
2018-08-08T15:26:20.591Z,85.83
2018-08-08T15:28:49.566Z,90.15
2018-08-08T15:31:18.651Z,89.89
2018-08-08T15:33:47.699Z,91.79
2018-08-08T15:36:16.689Z,91.91
2018-08-08T15:38:46.378Z,93.16
2018-08-08T15:41:15.447Z,94.35
2018-08-08T15:43:44.892Z,91.24
2018-08-08T15:46:13.957Z,90.00
2018-08-08T15:48:43.047Z,92.67
2018-08-08T15:51:12.145Z,86.90
2018-08-08T15:53:41.427Z,85.31
2018-08-08T15:56:11.150Z,88.45
2018-08-08T15:58:41.144Z,86.05
2018-08-08T16:01:11.545Z,87.34
2018-08-08T16:03:40.555Z,87.81
2018-08-08T16:06:09.999Z,89.06
2018-08-08T16:08:38.944Z,89.98
2018-08-08T16:11:08.144Z,90.93
2018-08-08T16:13:38.608Z,92.43
2018-08-08T16:16:07.551Z,94.51
2018-08-08T16:18:36.924Z,97.32
2018-08-08T16:21:06.164Z,96.54
2018-08-08T16:23:35.282Z,96.05
2018-08-08T16:26:04.292Z,95.47
2018-08-08T16:28:33.232Z,95.10
2018-08-08T16:31:04.417Z,94.53
2018-08-08T16:33:33.584Z,95.24
2018-08-08T16:36:02.602Z,92.59
2018-08-08T16:38:32.430Z,91.33
2018-08-08T16:41:01.765Z,94.95
2018-08-08T16:43:30.856Z,94.98
2018-08-08T16:46:00.173Z,94.46
2018-08-08T16:48:29.176Z,97.12
2018-08-08T16:50:58.160Z,98.47
2018-08-08T16:53:31.121Z,96.85
2018-08-08T16:56:01.532Z,95.59
2018-08-08T16:58:30.699Z,95.27
2018-08-08T17:01:00.826Z,96.29
2018-08-08T17:03:30.631Z,93.63
2018-08-08T17:06:00.449Z,96.39
2018-08-08T17:08:30.144Z,96.70
2018-08-08T17:10:59.128Z,91.64
2018-08-08T17:13:28.119Z,90.62
2018-08-08T17:15:57.114Z,88.46
2018-08-08T17:18:26.169Z,93.04
2018-08-08T17:20:55.681Z,89.23
2018-08-08T17:23:25.404Z,86.15
2018-08-08T17:25:54.639Z,90.81
2018-08-08T17:28:24.242Z,94.64
2018-08-08T17:30:53.320Z,88.64
2018-08-08T17:33:25.549Z,89.18
2018-08-08T17:35:55.270Z,89.83
2018-08-08T17:38:25.153Z,88.06
2018-08-08T17:40:56.211Z,86.56
2018-08-08T17:43:26.322Z,87.49
2018-08-08T17:45:56.229Z,87.65
2018-08-08T17:48:25.340Z,89.77
2018-08-08T17:50:54.304Z,91.29
2018-08-08T17:53:23.421Z,89.40
2018-08-08T17:55:52.509Z,85.64
2018-08-08T17:58:21.482Z,89.04
2018-08-08T18:00:50.525Z,92.42
2018-08-08T18:03:19.832Z,93.75
2018-08-08T18:05:49.516Z,94.99
2018-08-08T18:08:18.520Z,94.42
2018-08-08T18:10:48.706Z,95.14
2018-08-08T18:13:18.216Z,95.83
2018-08-08T18:15:47.336Z,95.96
2018-08-08T18:18:17.300Z,96.88
2018-08-08T18:20:47.913Z,94.11
2018-08-08T18:23:18.235Z,95.43
2018-08-08T18:25:47.406Z,95.48
2018-08-08T18:28:16.371Z,95.35
2018-08-08T18:30:45.434Z,91.56
2018-08-08T18:33:14.387Z,90.13
2018-08-08T18:35:43.624Z,92.11
2018-08-08T18:38:12.725Z,95.17
2018-08-08T18:40:41.932Z,96.37
2018-08-08T18:43:10.908Z,96.62
2018-08-08T18:45:40.077Z,97.08
2018-08-08T18:48:09.074Z,95.95
2018-08-08T18:50:38.020Z,97.18
2018-08-08T18:53:08.006Z,97.70
2018-08-08T18:55:37.792Z,96.46
2018-08-08T18:58:06.906Z,97.33
2018-08-08T19:00:36.118Z,98.48
2018-08-08T19:03:06.253Z,97.03
2018-08-08T19:05:35.498Z,94.68
2018-08-08T19:08:04.702Z,96.12
2018-08-08T19:10:33.703Z,96.64
2018-08-08T19:13:02.721Z,97.30
2018-08-08T19:15:32.059Z,98.57
2018-08-08T19:18:01.147Z,98.47
2018-08-08T19:20:30.152Z,98.70
2018-08-08T19:22:59.232Z,98.87
2018-08-08T19:25:28.314Z,99.05
2018-08-08T19:27:58.505Z,99.24
2018-08-08T19:30:28.830Z,98.58
2018-08-08T19:32:58.456Z,98.18
2018-08-08T19:35:27.419Z,97.45
2018-08-08T19:37:56.423Z,95.77
2018-08-08T19:40:25.420Z,97.03
2018-08-08T19:42:54.706Z,94.29
2018-08-08T19:45:23.728Z,93.34
2018-08-08T19:47:52.769Z,93.94
2018-08-08T19:50:21.820Z,95.16
2018-08-08T19:52:51.094Z,95.73
2018-08-08T19:55:20.534Z,95.18
2018-08-08T19:57:50.056Z,95.68
2018-08-08T20:00:19.192Z,95.44
2018-08-08T20:02:49.236Z,94.63
2018-08-08T20:05:19.048Z,95.06
2018-08-08T20:07:48.229Z,96.13
2018-08-08T20:10:17.200Z,94.13
2018-08-08T20:12:46.195Z,93.93
2018-08-08T20:15:15.514Z,95.32
2018-08-08T20:17:44.574Z,95.33
2018-08-08T20:20:13.660Z,96.11
2018-08-08T20:22:42.619Z,95.82
2018-08-08T20:25:11.913Z,97.36
2018-08-08T20:27:41.827Z,95.97
2018-08-08T20:30:10.824Z,95.21
2018-08-08T20:32:39.928Z,95.54
2018-08-08T20:35:09.265Z,96.80
2018-08-08T20:37:38.400Z,95.16
2018-08-08T20:40:08.757Z,95.95
2018-08-08T20:42:38.569Z,95.14
2018-08-08T20:45:07.663Z,96.60
2018-08-08T20:47:37.316Z,96.62
2018-08-08T20:50:06.856Z,96.74
2018-08-08T20:52:35.908Z,96.90
2018-08-08T20:55:04.885Z,96.83
2018-08-08T20:57:33.838Z,96.06
2018-08-08T21:00:03.117Z,96.71
2018-08-08T21:02:32.311Z,96.57
2018-08-08T21:05:01.610Z,95.35
2018-08-08T21:07:31.749Z,95.71
2018-08-08T21:10:00.681Z,96.18
2018-08-08T21:12:30.686Z,97.16
2018-08-08T21:14:59.720Z,96.34
2018-08-08T21:17:28.788Z,97.59
2018-08-08T21:19:57.679Z,97.64
2018-08-08T21:22:26.836Z,97.33
2018-08-08T21:24:55.779Z,98.34
2018-08-08T21:27:25.300Z,95.86
2018-08-08T21:29:54.201Z,96.95
2018-08-08T21:32:23.199Z,97.33
2018-08-08T21:34:52.356Z,97.88
2018-08-08T21:37:21.650Z,99.03
2018-08-08T21:39:50.741Z,97.76
2018-08-08T21:42:19.652Z,96.46
2018-08-08T21:44:48.816Z,97.79
2018-08-08T21:47:17.742Z,96.45
2018-08-08T21:49:46.804Z,97.36
2018-08-08T21:52:15.784Z,95.80
2018-08-08T21:54:56.182Z,94.50
2018-08-08T21:57:36.600Z,93.93
2018-08-08T22:00:16.941Z,92.08
2018-08-08T22:02:57.194Z,92.22
2018-08-08T22:05:37.608Z,92.06
2018-08-08T22:08:17.927Z,90.92
2018-08-08T22:10:58.783Z,89.87
2018-08-08T22:13:39.150Z,89.65
2018-08-08T22:16:19.584Z,90.51
2018-08-08T22:19:02.718Z,90.66
2018-08-08T22:21:31.692Z,91.21
2018-08-08T22:24:00.656Z,89.25
2018-08-08T22:26:29.571Z,90.25
2018-08-08T22:28:58.504Z,89.20
2018-08-08T22:31:27.459Z,90.53
2018-08-08T22:33:56.363Z,90.49
2018-08-08T22:36:25.252Z,90.65
2018-08-08T22:38:54.163Z,91.50
2018-08-08T22:41:23.067Z,91.06
2018-08-08T22:43:51.995Z,92.02
2018-08-08T22:46:20.875Z,91.35
2018-08-08T22:48:49.781Z,91.47
2018-08-08T22:51:18.906Z,90.66
2018-08-08T22:53:47.919Z,91.04
2018-08-08T22:56:16.822Z,91.00
2018-08-08T22:58:45.748Z,91.74
2018-08-08T23:01:14.640Z,91.28
2018-08-08T23:03:43.531Z,91.14
2018-08-08T23:06:12.467Z,92.05
2018-08-08T23:08:41.356Z,91.70
2018-08-08T23:11:12.508Z,91.35
2018-08-08T23:13:41.500Z,91.59
2018-08-08T23:16:10.419Z,92.11
2018-08-08T23:18:39.331Z,92.30
2018-08-08T23:21:08.323Z,92.08
2018-08-08T23:23:37.267Z,91.95
2018-08-08T23:26:06.192Z,92.65
2018-08-08T23:28:35.585Z,91.03
2018-08-08T23:31:04.638Z,92.46
2018-08-08T23:33:33.507Z,92.18
2018-08-08T23:36:02.408Z,91.95
2018-08-08T23:38:31.298Z,92.68
2018-08-08T23:41:00.245Z,92.39
2018-08-08T23:43:29.164Z,93.37
2018-08-08T23:45:58.052Z,93.27
2018-08-08T23:48:26.951Z,93.56
2018-08-08T23:50:55.866Z,93.26
2018-08-08T23:53:24.811Z,93.42
2018-08-08T23:55:53.716Z,94.09
2018-08-08T23:58:22.624Z,93.95
